Wetterdaten: aktuell Montag, 31.08.2026 09:20
Datum Zeit Temp. A. Feuchte A. Luftdruck Regen Wind Richtung Richtung Taupunkt Windchill Windböen
31.08.2026 09:20 18,8 °C 79 % 1012,4 hPa 0,0 mm 5,1 km/h (1 Bft) SW 219 ° 15,1 °C 18,8 °C 9,7 km/h (2 Bft)
31.08.2026 09:15 18,7 °C 80 % 1012,4 hPa 0,0 mm 5,3 km/h (1 Bft) SW 231 ° 15,2 °C 18,7 °C 9,7 km/h (2 Bft)
31.08.2026 09:10 18,5 °C 80 % 1012,4 hPa 0,0 mm 4,9 km/h (1 Bft) S-SW 211 ° 15,0 °C 18,5 °C 12,9 km/h (3 Bft)
31.08.2026 09:05 18,5 °C 81 % 1012,4 hPa 0,0 mm 4,4 km/h (1 Bft) SW 219 ° 15,2 °C 18,5 °C 8,0 km/h (2 Bft)
31.08.2026 09:00 18,4 °C 82 % 1012,4 hPa 0,0 mm 4,0 km/h (1 Bft) SW 219 ° 15,3 °C 18,4 °C 14,5 km/h (3 Bft)
31.08.2026 08:55 18,3 °C 82 % 1012,3 hPa 0,0 mm 4,1 km/h (1 Bft) W-SW 243 ° 15,2 °C 18,3 °C 8,0 km/h (2 Bft)
31.08.2026 08:50 18,1 °C 82 % 1012,3 hPa 0,0 mm 5,6 km/h (1 Bft) SW 229 ° 15,0 °C 18,1 °C 14,5 km/h (3 Bft)
31.08.2026 08:45 18,0 °C 83 % 1012,2 hPa 0,0 mm 5,2 km/h (1 Bft) S-SW 211 ° 15,1 °C 18,0 °C 12,9 km/h (3 Bft)
31.08.2026 08:40 17,9 °C 83 % 1012,3 hPa 0,0 mm 5,1 km/h (1 Bft) N 360 ° 15,0 °C 17,9 °C 12,9 km/h (3 Bft)
31.08.2026 08:35 17,8 °C 84 % 1012,4 hPa 0,0 mm 4,7 km/h (1 Bft) SW 217 ° 15,1 °C 17,8 °C 9,7 km/h (2 Bft)
31.08.2026 08:30 17,8 °C 84 % 1012,3 hPa 0,0 mm 3,5 km/h (1 Bft) S-SW 213 ° 15,1 °C 17,8 °C 11,3 km/h (2 Bft)
31.08.2026 08:25 17,7 °C 85 % 1012,3 hPa 0,0 mm 2,9 km/h (1 Bft) S-SW 201 ° 15,1 °C 17,7 °C 11,3 km/h (2 Bft)
31.08.2026 08:20 17,7 °C 85 % 1012,2 hPa 0,0 mm 3,0 km/h (1 Bft) SW 235 ° 15,1 °C 17,7 °C 8,0 km/h (2 Bft)
31.08.2026 08:15 17,6 °C 85 % 1012,3 hPa 0,0 mm 3,1 km/h (1 Bft) S-SW 206 ° 15,0 °C 17,6 °C 11,3 km/h (2 Bft)
31.08.2026 08:10 17,4 °C 85 % 1012,2 hPa 0,0 mm 3,0 km/h (1 Bft) SW 233 ° 14,8 °C 17,4 °C 9,7 km/h (2 Bft)
31.08.2026 08:05 17,3 °C 86 % 1012,2 hPa 0,0 mm 2,4 km/h (1 Bft) SW 220 ° 14,9 °C 17,3 °C 6,4 km/h (2 Bft)
31.08.2026 08:00 17,1 °C 86 % 1012,2 hPa 0,0 mm 3,4 km/h (1 Bft) SW 218 ° 14,7 °C 17,1 °C 8,0 km/h (2 Bft)
31.08.2026 07:55 16,8 °C 87 % 1012,1 hPa 0,0 mm 3,8 km/h (1 Bft) SW 218 ° 14,6 °C 16,8 °C 11,3 km/h (2 Bft)
31.08.2026 07:50 16,6 °C 88 % 1012,0 hPa 0,0 mm 2,0 km/h (1 Bft) SW 234 ° 14,6 °C 16,6 °C 8,0 km/h (2 Bft)
31.08.2026 07:45 16,2 °C 89 % 1012,0 hPa 0,0 mm 3,2 km/h (1 Bft) SW 228 ° 14,4 °C 16,2 °C 9,7 km/h (2 Bft)
31.08.2026 07:40 15,8 °C 91 % 1012,0 hPa 0,0 mm 2,7 km/h (1 Bft) SW 230 ° 14,3 °C 15,8 °C 14,5 km/h (3 Bft)
31.08.2026 07:35 15,4 °C 92 % 1011,9 hPa 0,0 mm 0,0 km/h (0 Bft) S-SW 212 ° 14,1 °C 15,4 °C 0,0 km/h (0 Bft)
31.08.2026 07:30 15,2 °C 92 % 1011,9 hPa 0,0 mm 0,0 km/h (0 Bft) S-SW 212 ° 13,9 °C 15,2 °C 0,0 km/h (0 Bft)
31.08.2026 07:25 15,1 °C 92 % 1012,0 hPa 0,0 mm 0,0 km/h (0 Bft) SW 221 ° 13,8 °C 15,1 °C 0,0 km/h (0 Bft)
31.08.2026 07:20 15,1 °C 91 % 1012,0 hPa 0,0 mm 0,0 km/h (0 Bft) SW 221 ° 13,6 °C 15,1 °C 0,0 km/h (0 Bft)
31.08.2026 07:15 15,1 °C 91 % 1012,0 hPa 0,0 mm 0,0 km/h (0 Bft) SW 221 ° 13,6 °C 15,1 °C 0,0 km/h (0 Bft)
31.08.2026 07:10 15,2 °C 90 % 1012,0 hPa 0,0 mm 0,0 km/h (0 Bft) SW 221 ° 13,6 °C 15,2 °C 0,0 km/h (0 Bft)
31.08.2026 07:05 15,3 °C 90 % 1012,0 hPa 0,0 mm 0,0 km/h (0 Bft) SW 221 ° 13,7 °C 15,3 °C 0,0 km/h (0 Bft)
31.08.2026 07:00 15,4 °C 90 % 1012,0 hPa 0,0 mm 0,0 km/h (0 Bft) SW 221 ° 13,8 °C 15,4 °C 0,0 km/h (0 Bft)
31.08.2026 06:55 15,5 °C 89 % 1012,0 hPa 0,0 mm 0,0 km/h (0 Bft) SW 221 ° 13,7 °C 15,5 °C 0,0 km/h (0 Bft)
31.08.2026 06:50 15,6 °C 89 % 1012,0 hPa 0,0 mm 0,0 km/h (0 Bft) SW 221 ° 13,8 °C 15,6 °C 0,0 km/h (0 Bft)
31.08.2026 06:45 15,7 °C 89 % 1011,9 hPa 0,0 mm 0,0 km/h (0 Bft) SW 221 ° 13,9 °C 15,7 °C 0,0 km/h (0 Bft)
31.08.2026 06:40 15,8 °C 89 % 1011,8 hPa 0,0 mm 0,0 km/h (0 Bft) SW 221 ° 14,0 °C 15,8 °C 0,0 km/h (0 Bft)
31.08.2026 06:35 15,8 °C 89 % 1011,8 hPa 0,0 mm 0,0 km/h (0 Bft) SW 221 ° 14,0 °C 15,8 °C 0,0 km/h (0 Bft)
31.08.2026 06:30 15,9 °C 88 % 1011,8 hPa 0,0 mm 0,0 km/h (0 Bft) N 360 ° 13,9 °C 15,9 °C 0,0 km/h (0 Bft)
31.08.2026 06:25 16,1 °C 88 % 1011,9 hPa 0,0 mm 0,0 km/h (0 Bft) SW 221 ° 14,1 °C 16,1 °C 0,0 km/h (0 Bft)
31.08.2026 06:20 16,2 °C 88 % 1011,8 hPa 0,0 mm 0,0 km/h (0 Bft) SW 221 ° 14,2 °C 16,2 °C 0,0 km/h (0 Bft)
31.08.2026 06:15 16,3 °C 88 % 1011,8 hPa 0,0 mm 1,6 km/h (1 Bft) N 360 ° 14,3 °C 16,3 °C 4,8 km/h (1 Bft)
31.08.2026 06:10 16,4 °C 88 % 1011,8 hPa 0,0 mm 2,3 km/h (1 Bft) N 360 ° 14,4 °C 16,4 °C 6,4 km/h (2 Bft)
31.08.2026 06:05 16,5 °C 88 % 1011,6 hPa 0,0 mm 1,7 km/h (1 Bft) N 360 ° 14,5 °C 16,5 °C 4,8 km/h (1 Bft)
31.08.2026 06:00 16,6 °C 88 % 1011,7 hPa 0,0 mm 1,7 km/h (1 Bft) N 360 ° 14,6 °C 16,6 °C 6,4 km/h (2 Bft)
31.08.2026 05:55 16,6 °C 88 % 1011,6 hPa 0,0 mm 2,1 km/h (1 Bft) N 360 ° 14,6 °C 16,6 °C 9,7 km/h (2 Bft)
31.08.2026 05:50 16,6 °C 88 % 1011,7 hPa 0,0 mm 2,5 km/h (1 Bft) N 360 ° 14,6 °C 16,6 °C 8,0 km/h (2 Bft)
31.08.2026 05:45 16,7 °C 88 % 1011,8 hPa 0,0 mm 1,1 km/h (1 Bft) SW 234 ° 14,7 °C 16,7 °C 4,8 km/h (1 Bft)
31.08.2026 05:40 16,8 °C 88 % 1011,8 hPa 0,0 mm 1,5 km/h (1 Bft) N 360 ° 14,8 °C 16,8 °C 6,4 km/h (2 Bft)
31.08.2026 05:35 16,8 °C 88 % 1011,8 hPa 0,0 mm 0,6 km/h (0 Bft) N 360 ° 14,8 °C 16,8 °C 4,8 km/h (1 Bft)
31.08.2026 05:30 16,9 °C 88 % 1011,8 hPa 0,0 mm 1,3 km/h (1 Bft) N 360 ° 14,9 °C 16,9 °C 4,8 km/h (1 Bft)
31.08.2026 05:25 17,0 °C 88 % 1011,7 hPa 0,0 mm 2,1 km/h (1 Bft) N 360 ° 15,0 °C 17,0 °C 8,0 km/h (2 Bft)
31.08.2026 05:20 17,1 °C 89 % 1011,8 hPa 0,0 mm 4,3 km/h (1 Bft) N 360 ° 15,3 °C 17,1 °C 8,0 km/h (2 Bft)
31.08.2026 05:15 17,0 °C 89 % 1011,8 hPa 0,0 mm 4,3 km/h (1 Bft) N 360 ° 15,2 °C 17,0 °C 9,7 km/h (2 Bft)
31.08.2026 05:10 17,1 °C 89 % 1011,7 hPa 0,0 mm 3,6 km/h (1 Bft) N 360 ° 15,3 °C 17,1 °C 8,0 km/h (2 Bft)
31.08.2026 05:05 17,1 °C 90 % 1011,7 hPa 0,0 mm 1,8 km/h (1 Bft) N 360 ° 15,4 °C 17,1 °C 8,0 km/h (2 Bft)
31.08.2026 05:00 17,1 °C 90 % 1011,8 hPa 0,0 mm 1,9 km/h (1 Bft) N 360 ° 15,4 °C 17,1 °C 9,7 km/h (2 Bft)
31.08.2026 04:55 17,1 °C 90 % 1011,8 hPa 0,0 mm 1,6 km/h (1 Bft) N 360 ° 15,4 °C 17,1 °C 6,4 km/h (2 Bft)
31.08.2026 04:50 17,2 °C 90 % 1011,7 hPa 0,0 mm 2,2 km/h (1 Bft) N 360 ° 15,5 °C 17,2 °C 8,0 km/h (2 Bft)
31.08.2026 04:45 17,2 °C 90 % 1011,7 hPa 0,0 mm 2,0 km/h (1 Bft) N 360 ° 15,5 °C 17,2 °C 4,8 km/h (1 Bft)
31.08.2026 04:40 17,3 °C 90 % 1011,7 hPa 0,0 mm 1,9 km/h (1 Bft) N 360 ° 15,6 °C 17,3 °C 8,0 km/h (2 Bft)
31.08.2026 04:35 17,3 °C 89 % 1011,6 hPa 0,0 mm 2,5 km/h (1 Bft) N 360 ° 15,5 °C 17,3 °C 6,4 km/h (2 Bft)
31.08.2026 04:30 17,4 °C 89 % 1011,6 hPa 0,0 mm 3,5 km/h (1 Bft) N 360 ° 15,6 °C 17,4 °C 8,0 km/h (2 Bft)
31.08.2026 04:25 17,5 °C 89 % 1011,5 hPa 0,0 mm 3,1 km/h (1 Bft) N 360 ° 15,7 °C 17,5 °C 9,7 km/h (2 Bft)
31.08.2026 04:20 17,6 °C 89 % 1011,6 hPa 0,0 mm 4,2 km/h (1 Bft) N 360 ° 15,8 °C 17,6 °C 9,7 km/h (2 Bft)
31.08.2026 04:15 17,7 °C 88 % 1011,6 hPa 0,0 mm 4,0 km/h (1 Bft) N 360 ° 15,7 °C 17,7 °C 9,7 km/h (2 Bft)
31.08.2026 04:10 17,8 °C 87 % 1011,6 hPa 0,2 mm 6,6 km/h (2 Bft) N 360 ° 15,6 °C 17,7 °C 16,1 km/h (3 Bft)
31.08.2026 04:05 18,0 °C 86 % 1011,8 hPa 0,0 mm 7,5 km/h (2 Bft) N 360 ° 15,6 °C 17,5 °C 16,1 km/h (3 Bft)
31.08.2026 04:00 18,1 °C 85 % 1011,8 hPa 0,0 mm 7,7 km/h (2 Bft) SW 217 ° 15,5 °C 17,5 °C 19,3 km/h (3 Bft)
31.08.2026 03:55 18,1 °C 84 % 1011,6 hPa 0,0 mm 6,1 km/h (2 Bft) W-SW 246 ° 15,4 °C 18,1 °C 11,3 km/h (2 Bft)
31.08.2026 03:50 18,2 °C 84 % 1011,5 hPa 0,0 mm 4,1 km/h (1 Bft) W-SW 244 ° 15,4 °C 18,2 °C 9,7 km/h (2 Bft)
31.08.2026 03:45 18,2 °C 84 % 1011,4 hPa 0,0 mm 7,8 km/h (2 Bft) SW 221 ° 15,4 °C 17,6 °C 17,7 km/h (3 Bft)
31.08.2026 03:40 18,3 °C 84 % 1011,4 hPa 0,0 mm 6,2 km/h (2 Bft) SW 225 ° 15,5 °C 18,3 °C 14,5 km/h (3 Bft)
31.08.2026 03:35 18,4 °C 83 % 1011,3 hPa 0,0 mm 7,7 km/h (2 Bft) SW 219 ° 15,5 °C 17,8 °C 17,7 km/h (3 Bft)
31.08.2026 03:30 18,4 °C 82 % 1011,3 hPa 0,0 mm 6,4 km/h (2 Bft) SW 217 ° 15,3 °C 18,4 °C 14,5 km/h (3 Bft)
31.08.2026 03:25 18,4 °C 81 % 1011,2 hPa 0,0 mm 6,0 km/h (2 Bft) SW 220 ° 15,1 °C 18,4 °C 11,3 km/h (2 Bft)
31.08.2026 03:20 18,5 °C 81 % 1011,4 hPa 0,0 mm 7,2 km/h (2 Bft) S-SW 213 ° 15,2 °C 18,1 °C 19,3 km/h (3 Bft)
31.08.2026 03:15 18,5 °C 80 % 1011,4 hPa 0,0 mm 7,2 km/h (2 Bft) W-SW 244 ° 15,0 °C 18,1 °C 12,9 km/h (3 Bft)
31.08.2026 03:10 18,6 °C 80 % 1011,5 hPa 0,0 mm 5,2 km/h (1 Bft) S-SW 203 ° 15,1 °C 18,6 °C 14,5 km/h (3 Bft)
31.08.2026 03:05 18,7 °C 79 % 1011,5 hPa 0,0 mm 5,0 km/h (1 Bft) SW 235 ° 15,0 °C 18,7 °C 11,3 km/h (2 Bft)
31.08.2026 03:00 18,9 °C 78 % 1011,5 hPa 0,0 mm 4,7 km/h (1 Bft) SW 234 ° 15,0 °C 18,9 °C 12,9 km/h (3 Bft)
31.08.2026 02:55 19,0 °C 77 % 1011,3 hPa 0,0 mm 5,8 km/h (2 Bft) SW 222 ° 14,9 °C 19,0 °C 11,3 km/h (2 Bft)
31.08.2026 02:50 19,1 °C 76 % 1011,3 hPa 0,0 mm 4,0 km/h (1 Bft) SW 218 ° 14,8 °C 19,1 °C 9,7 km/h (2 Bft)
31.08.2026 02:45 19,2 °C 76 % 1011,5 hPa 0,0 mm 5,6 km/h (1 Bft) SW 216 ° 14,9 °C 19,2 °C 12,9 km/h (3 Bft)
31.08.2026 02:40 19,2 °C 75 % 1011,7 hPa 0,0 mm 5,7 km/h (1 Bft) SW 224 ° 14,7 °C 19,2 °C 14,5 km/h (3 Bft)
31.08.2026 02:35 19,3 °C 74 % 1011,6 hPa 0,0 mm 4,2 km/h (1 Bft) SW 224 ° 14,5 °C 19,3 °C 12,9 km/h (3 Bft)
31.08.2026 02:30 19,4 °C 74 % 1011,6 hPa 0,0 mm 5,2 km/h (1 Bft) W-SW 250 ° 14,6 °C 19,4 °C 12,9 km/h (3 Bft)
31.08.2026 02:25 19,5 °C 73 % 1011,7 hPa 0,0 mm 5,0 km/h (1 Bft) SW 219 ° 14,5 °C 19,5 °C 11,3 km/h (2 Bft)
31.08.2026 02:20 19,6 °C 73 % 1011,6 hPa 0,0 mm 5,2 km/h (1 Bft) SW 219 ° 14,6 °C 19,6 °C 16,1 km/h (3 Bft)
31.08.2026 02:15 19,6 °C 72 % 1011,7 hPa 0,0 mm 6,4 km/h (2 Bft) S-SW 212 ° 14,4 °C 19,6 °C 16,1 km/h (3 Bft)
31.08.2026 02:10 19,7 °C 72 % 1011,6 hPa 0,0 mm 6,9 km/h (2 Bft) SW 236 ° 14,5 °C 19,5 °C 14,5 km/h (3 Bft)
31.08.2026 02:05 19,7 °C 71 % 1011,6 hPa 0,0 mm 6,5 km/h (2 Bft) SW 235 ° 14,3 °C 19,7 °C 12,9 km/h (3 Bft)
31.08.2026 02:00 19,6 °C 71 % 1011,8 hPa 0,0 mm 5,1 km/h (1 Bft) S-SW 198 ° 14,2 °C 19,6 °C 14,5 km/h (3 Bft)
31.08.2026 01:55 19,7 °C 71 % 1011,7 hPa 0,0 mm 4,4 km/h (1 Bft) S-SW 209 ° 14,3 °C 19,7 °C 9,7 km/h (2 Bft)
31.08.2026 01:50 19,7 °C 71 % 1011,6 hPa 0,0 mm 4,0 km/h (1 Bft) S-SW 203 ° 14,3 °C 19,7 °C 8,0 km/h (2 Bft)
31.08.2026 01:45 19,7 °C 71 % 1011,7 hPa 0,0 mm 3,4 km/h (1 Bft) S-SW 212 ° 14,3 °C 19,7 °C 9,7 km/h (2 Bft)
31.08.2026 01:40 19,7 °C 71 % 1011,8 hPa 0,0 mm 2,6 km/h (1 Bft) S-SW 205 ° 14,3 °C 19,7 °C 8,0 km/h (2 Bft)
31.08.2026 01:35 19,8 °C 70 % 1011,6 hPa 0,0 mm 2,4 km/h (1 Bft) S 183 ° 14,2 °C 19,8 °C 8,0 km/h (2 Bft)
31.08.2026 01:30 19,8 °C 70 % 1011,6 hPa 0,0 mm 1,8 km/h (1 Bft) S-SW 198 ° 14,2 °C 19,8 °C 8,0 km/h (2 Bft)
31.08.2026 01:25 19,8 °C 71 % 1011,6 hPa 0,0 mm 2,5 km/h (1 Bft) SW 225 ° 14,4 °C 19,8 °C 6,4 km/h (2 Bft)
31.08.2026 01:20 19,7 °C 71 % 1011,9 hPa 0,0 mm 2,8 km/h (1 Bft) S-SW 212 ° 14,3 °C 19,7 °C 8,0 km/h (2 Bft)
31.08.2026 01:15 19,7 °C 71 % 1011,8 hPa 0,0 mm 4,1 km/h (1 Bft) SW 232 ° 14,3 °C 19,7 °C 9,7 km/h (2 Bft)
31.08.2026 01:10 19,6 °C 71 % 1011,9 hPa 0,0 mm 5,0 km/h (1 Bft) S-SW 203 ° 14,2 °C 19,6 °C 14,5 km/h (3 Bft)
31.08.2026 01:05 19,6 °C 71 % 1011,9 hPa 0,0 mm 2,8 km/h (1 Bft) S-SW 211 ° 14,2 °C 19,6 °C 6,4 km/h (2 Bft)
31.08.2026 01:00 19,6 °C 71 % 1011,7 hPa 0,0 mm 2,9 km/h (1 Bft) S-SW 209 ° 14,2 °C 19,6 °C 8,0 km/h (2 Bft)
31.08.2026 00:55 19,4 °C 72 % 1011,8 hPa 0,0 mm 1,9 km/h (1 Bft) S-SW 194 ° 14,2 °C 19,4 °C 6,4 km/h (2 Bft)
31.08.2026 00:50 19,4 °C 72 % 1011,8 hPa 0,0 mm 3,0 km/h (1 Bft) S 184 ° 14,2 °C 19,4 °C 8,0 km/h (2 Bft)
31.08.2026 00:45 19,4 °C 72 % 1011,8 hPa 0,0 mm 2,6 km/h (1 Bft) S-SW 200 ° 14,2 °C 19,4 °C 8,0 km/h (2 Bft)
31.08.2026 00:40 19,3 °C 72 % 1011,8 hPa 0,0 mm 2,9 km/h (1 Bft) S 182 ° 14,1 °C 19,3 °C 6,4 km/h (2 Bft)
31.08.2026 00:35 19,2 °C 72 % 1011,8 hPa 0,0 mm 2,7 km/h (1 Bft) S-SW 206 ° 14,0 °C 19,2 °C 8,0 km/h (2 Bft)
31.08.2026 00:30 19,2 °C 72 % 1011,9 hPa 0,0 mm 1,7 km/h (1 Bft) S-SW 205 ° 14,0 °C 19,2 °C 6,4 km/h (2 Bft)
31.08.2026 00:25 19,1 °C 73 % 1011,9 hPa 0,0 mm 1,7 km/h (1 Bft) S-SW 203 ° 14,1 °C 19,1 °C 4,8 km/h (1 Bft)
31.08.2026 00:20 19,1 °C 73 % 1012,1 hPa 0,0 mm 1,7 km/h (1 Bft) S-SW 207 ° 14,1 °C 19,1 °C 6,4 km/h (2 Bft)
31.08.2026 00:15 19,2 °C 72 % 1012,1 hPa 0,0 mm 1,8 km/h (1 Bft) S-SW 211 ° 14,0 °C 19,2 °C 4,8 km/h (1 Bft)
31.08.2026 00:10 19,2 °C 72 % 1012,3 hPa 0,0 mm 2,6 km/h (1 Bft) SW 217 ° 14,0 °C 19,2 °C 6,4 km/h (2 Bft)
31.08.2026 00:05 19,3 °C 72 % 1012,3 hPa 0,0 mm 1,9 km/h (1 Bft) SW 218 ° 14,1 °C 19,3 °C 6,4 km/h (2 Bft)
31.08.2026 00:00 19,4 °C 72 % 1012,2 hPa 0,0 mm 0,9 km/h (0 Bft) SW 217 ° 14,2 °C 19,4 °C 3,2 km/h (1 Bft)
30.08.2026 23:55 19,4 °C 72 % 1012,2 hPa 0,0 mm 1,4 km/h (1 Bft) SW 218 ° 14,2 °C 19,4 °C 4,8 km/h (1 Bft)
30.08.2026 23:50 19,4 °C 72 % 1012,3 hPa 0,0 mm 1,2 km/h (1 Bft) SW 219 ° 14,2 °C 19,4 °C 4,8 km/h (1 Bft)
30.08.2026 23:45 19,3 °C 72 % 1012,3 hPa 0,0 mm 3,2 km/h (1 Bft) SW 225 ° 14,1 °C 19,3 °C 8,0 km/h (2 Bft)
30.08.2026 23:40 19,4 °C 72 % 1012,3 hPa 0,0 mm 1,6 km/h (1 Bft) SW 225 ° 14,2 °C 19,4 °C 6,4 km/h (2 Bft)
30.08.2026 23:35 19,3 °C 72 % 1012,3 hPa 0,0 mm 1,6 km/h (1 Bft) SW 225 ° 14,1 °C 19,3 °C 4,8 km/h (1 Bft)
30.08.2026 23:30 19,4 °C 72 % 1012,3 hPa 0,0 mm 0,0 km/h (0 Bft) N 0 ° 14,2 °C 19,4 °C 0,0 km/h (0 Bft)
30.08.2026 23:25 19,4 °C 72 % 1012,3 hPa 0,0 mm 0,0 km/h (0 Bft) N 0 ° 14,2 °C 19,4 °C 0,0 km/h (0 Bft)
30.08.2026 23:20 19,4 °C 72 % 1012,2 hPa 0,0 mm 0,0 km/h (0 Bft) N 0 ° 14,2 °C 19,4 °C 0,0 km/h (0 Bft)
30.08.2026 23:15 19,5 °C 72 % 1012,3 hPa 0,0 mm 0,0 km/h (0 Bft) SW 225 ° 14,3 °C 19,5 °C 3,2 km/h (1 Bft)
30.08.2026 23:10 19,6 °C 71 % 1012,3 hPa 0,0 mm 1,6 km/h (1 Bft) SW 225 ° 14,2 °C 19,6 °C 4,8 km/h (1 Bft)
30.08.2026 23:05 19,6 °C 71 % 1012,3 hPa 0,0 mm 0,0 km/h (0 Bft) SW 225 ° 14,2 °C 19,6 °C 3,2 km/h (1 Bft)
30.08.2026 23:00 19,6 °C 71 % 1012,3 hPa 0,0 mm 1,6 km/h (1 Bft) SW 225 ° 14,2 °C 19,6 °C 4,8 km/h (1 Bft)
30.08.2026 22:55 19,5 °C 71 % 1012,4 hPa 0,0 mm 1,6 km/h (1 Bft) SW 225 ° 14,1 °C 19,5 °C 6,4 km/h (2 Bft)
30.08.2026 22:50 19,4 °C 71 % 1012,5 hPa 0,0 mm 0,0 km/h (0 Bft) SW 225 ° 14,0 °C 19,4 °C 3,2 km/h (1 Bft)
30.08.2026 22:45 19,4 °C 71 % 1012,4 hPa 0,0 mm 0,0 km/h (0 Bft) SW 225 ° 14,0 °C 19,4 °C 3,2 km/h (1 Bft)
30.08.2026 22:40 19,4 °C 71 % 1012,3 hPa 0,0 mm 0,0 km/h (0 Bft) SW 225 ° 14,0 °C 19,4 °C 4,8 km/h (1 Bft)
30.08.2026 22:35 19,4 °C 71 % 1012,4 hPa 0,0 mm 0,3 km/h (0 Bft) SW 225 ° 14,0 °C 19,4 °C 3,2 km/h (1 Bft)
30.08.2026 22:30 19,5 °C 71 % 1012,3 hPa 0,0 mm 0,4 km/h (0 Bft) SW 225 ° 14,1 °C 19,5 °C 3,2 km/h (1 Bft)
30.08.2026 22:25 19,6 °C 71 % 1012,4 hPa 0,0 mm 0,0 km/h (0 Bft) SW 227 ° 14,2 °C 19,6 °C 0,0 km/h (0 Bft)
30.08.2026 22:20 19,6 °C 71 % 1012,3 hPa 0,0 mm 0,0 km/h (0 Bft) SW 227 ° 14,2 °C 19,6 °C 0,0 km/h (0 Bft)
30.08.2026 22:15 19,7 °C 71 % 1012,4 hPa 0,0 mm 0,0 km/h (0 Bft) SW 227 ° 14,3 °C 19,7 °C 0,0 km/h (0 Bft)
30.08.2026 22:10 19,7 °C 71 % 1012,4 hPa 0,0 mm 0,0 km/h (0 Bft) SW 227 ° 14,3 °C 19,7 °C 0,0 km/h (0 Bft)
30.08.2026 22:05 19,7 °C 71 % 1012,5 hPa 0,0 mm 0,0 km/h (0 Bft) SW 227 ° 14,3 °C 19,7 °C 0,0 km/h (0 Bft)
30.08.2026 22:00 19,8 °C 71 % 1012,5 hPa 0,0 mm 0,0 km/h (0 Bft) SW 227 ° 14,4 °C 19,8 °C 0,0 km/h (0 Bft)
30.08.2026 21:55 19,7 °C 71 % 1012,6 hPa 0,0 mm 0,0 km/h (0 Bft) SW 227 ° 14,3 °C 19,7 °C 0,0 km/h (0 Bft)
30.08.2026 21:50 19,7 °C 71 % 1012,6 hPa 0,0 mm 0,0 km/h (0 Bft) SW 227 ° 14,3 °C 19,7 °C 0,0 km/h (0 Bft)
30.08.2026 21:45 19,7 °C 71 % 1012,7 hPa 0,0 mm 0,0 km/h (0 Bft) SW 227 ° 14,3 °C 19,7 °C 0,0 km/h (0 Bft)
30.08.2026 21:40 19,6 °C 71 % 1012,6 hPa 0,0 mm 0,0 km/h (0 Bft) SW 227 ° 14,2 °C 19,6 °C 0,0 km/h (0 Bft)
30.08.2026 21:35 19,4 °C 71 % 1012,7 hPa 0,0 mm 0,0 km/h (0 Bft) SW 227 ° 14,0 °C 19,4 °C 0,0 km/h (0 Bft)
30.08.2026 21:30 19,4 °C 72 % 1012,7 hPa 0,0 mm 0,0 km/h (0 Bft) SW 227 ° 14,2 °C 19,4 °C 0,0 km/h (0 Bft)
30.08.2026 21:25 19,3 °C 72 % 1012,7 hPa 0,0 mm 0,0 km/h (0 Bft) SW 227 ° 14,1 °C 19,3 °C 0,0 km/h (0 Bft)
30.08.2026 21:20 19,2 °C 72 % 1012,7 hPa 0,0 mm 0,0 km/h (0 Bft) SW 227 ° 14,0 °C 19,2 °C 0,0 km/h (0 Bft)
30.08.2026 21:15 19,3 °C 73 % 1012,8 hPa 0,0 mm 0,0 km/h (0 Bft) SW 227 ° 14,3 °C 19,3 °C 0,0 km/h (0 Bft)
30.08.2026 21:10 19,4 °C 72 % 1012,8 hPa 0,0 mm 0,0 km/h (0 Bft) SW 227 ° 14,2 °C 19,4 °C 0,0 km/h (0 Bft)
30.08.2026 21:05 19,7 °C 71 % 1012,7 hPa 0,0 mm 0,0 km/h (0 Bft) SW 227 ° 14,3 °C 19,7 °C 0,0 km/h (0 Bft)
30.08.2026 21:00 19,8 °C 71 % 1012,7 hPa 0,0 mm 0,0 km/h (0 Bft) SW 227 ° 14,4 °C 19,8 °C 0,0 km/h (0 Bft)
30.08.2026 20:55 20,0 °C 70 % 1012,7 hPa 0,0 mm 0,0 km/h (0 Bft) SW 227 ° 14,4 °C 20,0 °C 0,0 km/h (0 Bft)
30.08.2026 20:50 20,1 °C 70 % 1012,7 hPa 0,0 mm 0,0 km/h (0 Bft) SW 227 ° 14,5 °C 20,1 °C 0,0 km/h (0 Bft)
30.08.2026 20:45 20,3 °C 70 % 1012,7 hPa 0,0 mm 0,0 km/h (0 Bft) SW 227 ° 14,6 °C 20,3 °C 0,0 km/h (0 Bft)
30.08.2026 20:40 20,4 °C 69 % 1012,8 hPa 0,0 mm 0,0 km/h (0 Bft) SW 227 ° 14,5 °C 20,4 °C 0,0 km/h (0 Bft)
30.08.2026 20:35 20,5 °C 69 % 1012,7 hPa 0,0 mm 0,0 km/h (0 Bft) SW 227 ° 14,6 °C 20,5 °C 0,0 km/h (0 Bft)
30.08.2026 20:30 20,6 °C 69 % 1012,8 hPa 0,0 mm 0,0 km/h (0 Bft) SW 228 ° 14,7 °C 20,6 °C 0,0 km/h (0 Bft)
30.08.2026 20:25 20,8 °C 68 % 1012,8 hPa 0,0 mm 0,0 km/h (0 Bft) SW 228 ° 14,7 °C 20,8 °C 0,0 km/h (0 Bft)
30.08.2026 20:20 21,0 °C 68 % 1012,8 hPa 0,0 mm 0,0 km/h (0 Bft) SW 228 ° 14,9 °C 21,0 °C 0,0 km/h (0 Bft)
30.08.2026 20:15 21,2 °C 68 % 1012,7 hPa 0,0 mm 0,0 km/h (0 Bft) SW 228 ° 15,1 °C 21,2 °C 0,0 km/h (0 Bft)
30.08.2026 20:10 21,3 °C 67 % 1012,8 hPa 0,0 mm 0,0 km/h (0 Bft) SW 228 ° 14,9 °C 21,3 °C 0,0 km/h (0 Bft)
30.08.2026 20:05 21,5 °C 67 % 1012,8 hPa 0,0 mm 0,0 km/h (0 Bft) SW 228 ° 15,1 °C 21,5 °C 0,0 km/h (0 Bft)
30.08.2026 20:00 21,6 °C 66 % 1012,8 hPa 0,0 mm 0,0 km/h (0 Bft) SW 228 ° 15,0 °C 21,6 °C 0,0 km/h (0 Bft)
30.08.2026 19:55 21,7 °C 66 % 1012,9 hPa 0,0 mm 0,0 km/h (0 Bft) SW 228 ° 15,1 °C 21,7 °C 0,0 km/h (0 Bft)
30.08.2026 19:50 21,8 °C 66 % 1012,9 hPa 0,0 mm 0,9 km/h (0 Bft) SW 228 ° 15,2 °C 21,8 °C 4,8 km/h (1 Bft)
30.08.2026 19:45 21,8 °C 65 % 1012,9 hPa 0,0 mm 1,1 km/h (1 Bft) SW 228 ° 14,9 °C 21,8 °C 4,8 km/h (1 Bft)
30.08.2026 19:40 21,9 °C 65 % 1012,9 hPa 0,0 mm 0,5 km/h (0 Bft) SW 228 ° 15,0 °C 21,9 °C 3,2 km/h (1 Bft)
30.08.2026 19:35 22,0 °C 64 % 1012,9 hPa 0,0 mm 2,3 km/h (1 Bft) SW 228 ° 14,9 °C 22,0 °C 6,4 km/h (2 Bft)
30.08.2026 19:30 22,1 °C 64 % 1012,9 hPa 0,0 mm 1,8 km/h (1 Bft) SW 228 ° 15,0 °C 22,1 °C 11,3 km/h (2 Bft)
30.08.2026 19:25 22,1 °C 64 % 1012,9 hPa 0,0 mm 4,0 km/h (1 Bft) W-SW 244 ° 15,0 °C 22,1 °C 11,3 km/h (2 Bft)
30.08.2026 19:20 22,2 °C 64 % 1012,8 hPa 0,0 mm 1,7 km/h (1 Bft) W-SW 245 ° 15,1 °C 22,2 °C 6,4 km/h (2 Bft)
30.08.2026 19:15 22,3 °C 64 % 1012,9 hPa 0,0 mm 1,7 km/h (1 Bft) W-SW 243 ° 15,2 °C 22,3 °C 4,8 km/h (1 Bft)
30.08.2026 19:10 22,4 °C 63 % 1012,9 hPa 0,0 mm 2,5 km/h (1 Bft) W-SW 244 ° 15,0 °C 22,4 °C 11,3 km/h (2 Bft)
30.08.2026 19:05 22,4 °C 64 % 1013,0 hPa 0,0 mm 2,5 km/h (1 Bft) W-NW 282 ° 15,2 °C 22,4 °C 4,8 km/h (1 Bft)
30.08.2026 19:00 22,5 °C 63 % 1013,0 hPa 0,0 mm 2,8 km/h (1 Bft) W-NW 282 ° 15,1 °C 22,5 °C 6,4 km/h (2 Bft)
30.08.2026 18:55 22,5 °C 63 % 1013,1 hPa 0,0 mm 2,0 km/h (1 Bft) W-NW 285 ° 15,1 °C 22,5 °C 4,8 km/h (1 Bft)
30.08.2026 18:50 22,6 °C 63 % 1013,0 hPa 0,0 mm 2,3 km/h (1 Bft) W-NW 285 ° 15,2 °C 22,6 °C 9,7 km/h (2 Bft)
30.08.2026 18:45 22,6 °C 62 % 1013,1 hPa 0,0 mm 4,6 km/h (1 Bft) W-NW 285 ° 14,9 °C 22,6 °C 11,3 km/h (2 Bft)
30.08.2026 18:40 22,6 °C 62 % 1013,2 hPa 0,0 mm 6,5 km/h (2 Bft) W 271 ° 14,9 °C 22,6 °C 12,9 km/h (3 Bft)
30.08.2026 18:35 22,7 °C 62 % 1013,2 hPa 0,0 mm 5,3 km/h (1 Bft) W 272 ° 15,0 °C 22,7 °C 12,9 km/h (3 Bft)
30.08.2026 18:30 22,7 °C 61 % 1013,2 hPa 0,0 mm 5,4 km/h (1 Bft) W-SW 252 ° 14,8 °C 22,7 °C 11,3 km/h (2 Bft)
30.08.2026 18:25 22,8 °C 61 % 1013,3 hPa 0,0 mm 7,1 km/h (2 Bft) W-NW 297 ° 14,9 °C 22,6 °C 16,1 km/h (3 Bft)
30.08.2026 18:20 22,8 °C 60 % 1013,2 hPa 0,0 mm 6,2 km/h (2 Bft) W-SW 244 ° 14,6 °C 22,8 °C 12,9 km/h (3 Bft)
30.08.2026 18:15 22,9 °C 60 % 1013,1 hPa 0,0 mm 8,2 km/h (2 Bft) W 267 ° 14,7 °C 22,3 °C 16,1 km/h (3 Bft)
30.08.2026 18:10 22,9 °C 59 % 1013,2 hPa 0,0 mm 9,2 km/h (2 Bft) W-SW 254 ° 14,5 °C 22,1 °C 14,5 km/h (3 Bft)
30.08.2026 18:05 22,9 °C 60 % 1013,2 hPa 0,0 mm 6,9 km/h (2 Bft) SW 228 ° 14,7 °C 22,7 °C 17,7 km/h (3 Bft)
30.08.2026 18:00 22,9 °C 60 % 1013,2 hPa 0,0 mm 4,9 km/h (1 Bft) W 260 ° 14,7 °C 22,9 °C 11,3 km/h (2 Bft)
30.08.2026 17:55 22,9 °C 59 % 1013,1 hPa 0,0 mm 8,8 km/h (2 Bft) W-SW 258 ° 14,5 °C 22,2 °C 17,7 km/h (3 Bft)
30.08.2026 17:50 23,1 °C 58 % 1013,1 hPa 0,0 mm 7,5 km/h (2 Bft) W 265 ° 14,4 °C 22,8 °C 17,7 km/h (3 Bft)
30.08.2026 17:45 23,1 °C 57 % 1013,1 hPa 0,0 mm 9,6 km/h (2 Bft) W 272 ° 14,1 °C 22,2 °C 22,5 km/h (4 Bft)
30.08.2026 17:40 23,1 °C 58 % 1013,2 hPa 0,0 mm 6,6 km/h (2 Bft) W-SW 254 ° 14,4 °C 23,0 °C 12,9 km/h (3 Bft)
30.08.2026 17:35 23,2 °C 58 % 1013,2 hPa 0,0 mm 8,4 km/h (2 Bft) W 272 ° 14,5 °C 22,6 °C 17,7 km/h (3 Bft)
30.08.2026 17:30 23,2 °C 57 % 1013,2 hPa 0,0 mm 8,4 km/h (2 Bft) W-SW 244 ° 14,2 °C 22,6 °C 19,3 km/h (3 Bft)
30.08.2026 17:25 23,3 °C 57 % 1013,2 hPa 0,0 mm 9,7 km/h (2 Bft) W-NW 285 ° 14,3 °C 22,4 °C 17,7 km/h (3 Bft)
30.08.2026 17:20 23,3 °C 57 % 1013,2 hPa 0,0 mm 9,0 km/h (2 Bft) W 269 ° 14,3 °C 22,5 °C 17,7 km/h (3 Bft)
30.08.2026 17:15 23,4 °C 56 % 1013,2 hPa 0,0 mm 10,8 km/h (2 Bft) SW 235 ° 14,1 °C 22,2 °C 22,5 km/h (4 Bft)
30.08.2026 17:10 23,6 °C 56 % 1013,3 hPa 0,0 mm 8,3 km/h (2 Bft) SW 236 ° 14,3 °C 23,0 °C 16,1 km/h (3 Bft)
30.08.2026 17:05 23,7 °C 57 % 1013,3 hPa 0,0 mm 6,9 km/h (2 Bft) W-SW 253 ° 14,7 °C 23,6 °C 16,1 km/h (3 Bft)
30.08.2026 17:00 23,8 °C 58 % 1013,3 hPa 0,0 mm 6,0 km/h (2 Bft) W-NW 290 ° 15,0 °C 23,8 °C 14,5 km/h (3 Bft)
30.08.2026 16:55 23,7 °C 58 % 1013,3 hPa 0,0 mm 8,4 km/h (2 Bft) W-NW 282 ° 14,9 °C 23,1 °C 17,7 km/h (3 Bft)
30.08.2026 16:50 23,7 °C 58 % 1013,2 hPa 0,0 mm 8,3 km/h (2 Bft) W 281 ° 14,9 °C 23,2 °C 19,3 km/h (3 Bft)
30.08.2026 16:45 23,6 °C 58 % 1013,3 hPa 0,0 mm 8,6 km/h (2 Bft) W 279 ° 14,8 °C 23,0 °C 17,7 km/h (3 Bft)
30.08.2026 16:40 23,6 °C 59 % 1013,3 hPa 0,0 mm 7,0 km/h (2 Bft) W 262 ° 15,1 °C 23,4 °C 16,1 km/h (3 Bft)
30.08.2026 16:35 23,5 °C 59 % 1013,3 hPa 0,0 mm 8,0 km/h (2 Bft) SW 232 ° 15,0 °C 23,0 °C 17,7 km/h (3 Bft)
30.08.2026 16:30 23,5 °C 59 % 1013,3 hPa 0,0 mm 8,8 km/h (2 Bft) W-SW 242 ° 15,0 °C 22,8 °C 20,9 km/h (4 Bft)
30.08.2026 16:25 23,5 °C 58 % 1013,4 hPa 0,0 mm 9,8 km/h (2 Bft) W-SW 244 ° 14,7 °C 22,6 °C 19,3 km/h (3 Bft)
30.08.2026 16:20 23,6 °C 57 % 1013,4 hPa 0,0 mm 11,4 km/h (2 Bft) W-NW 286 ° 14,6 °C 22,3 °C 25,7 km/h (4 Bft)
30.08.2026 16:15 23,8 °C 59 % 1013,4 hPa 0,0 mm 7,4 km/h (2 Bft) W 266 ° 15,3 °C 23,5 °C 17,7 km/h (3 Bft)
30.08.2026 16:10 23,8 °C 59 % 1013,4 hPa 0,0 mm 5,3 km/h (1 Bft) W 269 ° 15,3 °C 23,8 °C 11,3 km/h (2 Bft)
30.08.2026 16:05 23,7 °C 59 % 1013,4 hPa 0,0 mm 6,3 km/h (2 Bft) W-SW 255 ° 15,2 °C 23,7 °C 14,5 km/h (3 Bft)
30.08.2026 16:00 23,5 °C 59 % 1013,5 hPa 0,0 mm 7,6 km/h (2 Bft) W-SW 238 ° 15,0 °C 23,1 °C 14,5 km/h (3 Bft)
30.08.2026 15:55 23,4 °C 59 % 1013,5 hPa 0,0 mm 8,4 km/h (2 Bft) SW 222 ° 14,9 °C 22,8 °C 14,5 km/h (3 Bft)
30.08.2026 15:50 23,4 °C 58 % 1013,6 hPa 0,0 mm 9,3 km/h (2 Bft) W-SW 256 ° 14,7 °C 22,6 °C 17,7 km/h (3 Bft)
30.08.2026 15:45 23,5 °C 57 % 1013,6 hPa 0,0 mm 9,4 km/h (2 Bft) W 261 ° 14,5 °C 22,7 °C 19,3 km/h (3 Bft)
30.08.2026 15:40 23,5 °C 57 % 1013,7 hPa 0,0 mm 11,0 km/h (2 Bft) W 263 ° 14,5 °C 22,3 °C 20,9 km/h (4 Bft)
30.08.2026 15:35 23,4 °C 57 % 1013,6 hPa 0,0 mm 11,7 km/h (2 Bft) SW 231 ° 14,4 °C 22,0 °C 22,5 km/h (4 Bft)
30.08.2026 15:30 23,4 °C 57 % 1013,6 hPa 0,0 mm 11,9 km/h (2 Bft) SW 232 ° 14,4 °C 22,0 °C 25,7 km/h (4 Bft)
30.08.2026 15:25 23,3 °C 57 % 1013,9 hPa 0,0 mm 11,7 km/h (2 Bft) SW 228 ° 14,3 °C 21,9 °C 19,3 km/h (3 Bft)
30.08.2026 15:20 23,3 °C 57 % 1013,7 hPa 0,0 mm 13,2 km/h (3 Bft) W 270 ° 14,3 °C 21,6 °C 25,7 km/h (4 Bft)
30.08.2026 15:15 23,3 °C 58 % 1013,8 hPa 0,0 mm 11,2 km/h (2 Bft) W 263 ° 14,6 °C 22,0 °C 22,5 km/h (4 Bft)
30.08.2026 15:10 23,4 °C 58 % 1013,7 hPa 0,0 mm 12,8 km/h (3 Bft) W 277 ° 14,7 °C 21,8 °C 24,1 km/h (4 Bft)
30.08.2026 15:05 23,3 °C 60 % 1013,7 hPa 0,0 mm 10,5 km/h (2 Bft) W 277 ° 15,1 °C 22,2 °C 22,5 km/h (4 Bft)
30.08.2026 15:00 23,2 °C 59 % 1013,7 hPa 0,0 mm 12,7 km/h (3 Bft) W 272 ° 14,7 °C 21,6 °C 22,5 km/h (4 Bft)
30.08.2026 14:55 23,2 °C 59 % 1013,8 hPa 0,0 mm 9,8 km/h (2 Bft) W 273 ° 14,7 °C 22,2 °C 19,3 km/h (3 Bft)
30.08.2026 14:50 23,1 °C 59 % 1013,7 hPa 0,0 mm 10,7 km/h (2 Bft) W-SW 254 ° 14,6 °C 21,9 °C 19,3 km/h (3 Bft)
30.08.2026 14:45 23,1 °C 58 % 1013,8 hPa 0,0 mm 12,7 km/h (3 Bft) SW 225 ° 14,4 °C 21,5 °C 25,7 km/h (4 Bft)
30.08.2026 14:40 23,0 °C 58 % 1013,8 hPa 0,0 mm 12,4 km/h (3 Bft) W 271 ° 14,3 °C 21,4 °C 25,7 km/h (4 Bft)
30.08.2026 14:35 23,0 °C 59 % 1013,8 hPa 0,0 mm 13,4 km/h (3 Bft) W 273 ° 14,5 °C 21,2 °C 29,0 km/h (5 Bft)
30.08.2026 14:30 23,3 °C 58 % 1013,7 hPa 0,0 mm 13,5 km/h (3 Bft) W 269 ° 14,6 °C 21,5 °C 27,4 km/h (4 Bft)
30.08.2026 14:25 23,3 °C 59 % 1013,7 hPa 0,0 mm 9,9 km/h (2 Bft) W-SW 244 ° 14,8 °C 22,3 °C 19,3 km/h (3 Bft)
30.08.2026 14:20 23,1 °C 58 % 1013,6 hPa 0,0 mm 8,8 km/h (2 Bft) W 279 ° 14,4 °C 22,4 °C 17,7 km/h (3 Bft)
30.08.2026 14:15 23,2 °C 58 % 1013,7 hPa 0,0 mm 7,2 km/h (2 Bft) S 188 ° 14,5 °C 23,0 °C 17,7 km/h (3 Bft)
30.08.2026 14:10 23,2 °C 58 % 1013,7 hPa 0,0 mm 11,6 km/h (2 Bft) SW 236 ° 14,5 °C 21,8 °C 24,1 km/h (4 Bft)
30.08.2026 14:05 23,2 °C 58 % 1013,5 hPa 0,0 mm 11,7 km/h (2 Bft) W-SW 242 ° 14,5 °C 21,8 °C 19,3 km/h (3 Bft)
30.08.2026 14:00 23,4 °C 57 % 1013,5 hPa 0,0 mm 10,6 km/h (2 Bft) W 262 ° 14,4 °C 22,3 °C 22,5 km/h (4 Bft)
30.08.2026 13:55 23,5 °C 57 % 1013,5 hPa 0,0 mm 13,5 km/h (3 Bft) W-SW 254 ° 14,5 °C 21,8 °C 22,5 km/h (4 Bft)
30.08.2026 13:50 23,7 °C 56 % 1013,4 hPa 0,0 mm 10,6 km/h (2 Bft) W-SW 237 ° 14,4 °C 22,6 °C 20,9 km/h (4 Bft)
30.08.2026 13:45 23,6 °C 57 % 1013,5 hPa 0,0 mm 10,8 km/h (2 Bft) W 264 ° 14,6 °C 22,4 °C 20,9 km/h (4 Bft)
30.08.2026 13:40 23,5 °C 57 % 1013,5 hPa 0,0 mm 9,2 km/h (2 Bft) W 278 ° 14,5 °C 22,7 °C 20,9 km/h (4 Bft)
30.08.2026 13:35 23,4 °C 58 % 1013,5 hPa 0,0 mm 11,0 km/h (2 Bft) W 264 ° 14,7 °C 22,2 °C 22,5 km/h (4 Bft)
30.08.2026 13:30 23,3 °C 58 % 1013,4 hPa 0,0 mm 9,2 km/h (2 Bft) SW 230 ° 14,6 °C 22,5 °C 19,3 km/h (3 Bft)
30.08.2026 13:25 23,1 °C 59 % 1013,3 hPa 0,0 mm 12,9 km/h (3 Bft) W 273 ° 14,6 °C 21,4 °C 24,1 km/h (4 Bft)
30.08.2026 13:20 23,1 °C 58 % 1013,3 hPa 0,0 mm 10,5 km/h (2 Bft) W-SW 237 ° 14,4 °C 21,9 °C 27,4 km/h (4 Bft)
30.08.2026 13:15 23,0 °C 58 % 1013,4 hPa 0,0 mm 9,8 km/h (2 Bft) W-NW 300 ° 14,3 °C 22,0 °C 20,9 km/h (4 Bft)
30.08.2026 13:10 23,0 °C 59 % 1013,3 hPa 0,0 mm 12,6 km/h (3 Bft) W-NW 282 ° 14,5 °C 21,4 °C 25,7 km/h (4 Bft)
30.08.2026 13:05 22,8 °C 59 % 1013,4 hPa 0,0 mm 12,2 km/h (2 Bft) W-SW 254 ° 14,4 °C 21,2 °C 30,6 km/h (5 Bft)
30.08.2026 13:00 22,8 °C 61 % 1013,4 hPa 0,0 mm 9,8 km/h (2 Bft) W-NW 298 ° 14,9 °C 21,8 °C 22,5 km/h (4 Bft)
30.08.2026 12:55 22,8 °C 61 % 1013,4 hPa 0,0 mm 8,1 km/h (2 Bft) W-SW 250 ° 14,9 °C 22,3 °C 14,5 km/h (3 Bft)
30.08.2026 12:50 22,8 °C 60 % 1013,4 hPa 0,0 mm 8,0 km/h (2 Bft) W-SW 247 ° 14,6 °C 22,3 °C 19,3 km/h (3 Bft)
30.08.2026 12:45 22,6 °C 60 % 1013,3 hPa 0,0 mm 9,7 km/h (2 Bft) SW 225 ° 14,4 °C 21,6 °C 19,3 km/h (3 Bft)
30.08.2026 12:40 22,5 °C 60 % 1013,5 hPa 0,0 mm 9,7 km/h (2 Bft) SW 225 ° 14,3 °C 21,5 °C 19,3 km/h (3 Bft)
30.08.2026 12:35 22,6 °C 60 % 1013,4 hPa 0,0 mm 8,0 km/h (2 Bft) W-SW 247 ° 14,4 °C 22,1 °C 19,3 km/h (3 Bft)
30.08.2026 12:30 22,3 °C 62 % 1013,6 hPa 0,0 mm 8,0 km/h (2 Bft) SW 225 ° 14,7 °C 21,8 °C 19,3 km/h (3 Bft)
30.08.2026 12:25 22,3 °C 62 % 1013,5 hPa 0,0 mm 8,0 km/h (2 Bft) W-NW 292 ° 14,7 °C 21,8 °C 16,1 km/h (3 Bft)
30.08.2026 12:20 22,3 °C 61 % 1013,6 hPa 0,0 mm 9,7 km/h (2 Bft) SW 225 ° 14,4 °C 21,3 °C 20,9 km/h (4 Bft)
30.08.2026 12:15 22,3 °C 61 % 1013,4 hPa 0,0 mm 11,3 km/h (2 Bft) SW 225 ° 14,4 °C 20,8 °C 22,5 km/h (4 Bft)
30.08.2026 12:10 22,6 °C 62 % 1013,4 hPa 0,0 mm 11,3 km/h (2 Bft) W 270 ° 14,9 °C 21,2 °C 24,1 km/h (4 Bft)
30.08.2026 12:05 22,7 °C 61 % 1013,4 hPa 0,0 mm 11,3 km/h (2 Bft) W-SW 247 ° 14,8 °C 21,3 °C 19,3 km/h (3 Bft)
30.08.2026 12:00 22,9 °C 61 % 1013,4 hPa 0,0 mm 7,0 km/h (2 Bft) W-SW 242 ° 15,0 °C 22,7 °C 16,1 km/h (3 Bft)
30.08.2026 11:55 23,1 °C 61 % 1013,4 hPa 0,0 mm 8,7 km/h (2 Bft) W 261 ° 15,2 °C 22,4 °C 17,7 km/h (3 Bft)
30.08.2026 11:50 22,7 °C 61 % 1013,4 hPa 0,0 mm 10,5 km/h (2 Bft) W 261 ° 14,8 °C 21,5 °C 22,5 km/h (4 Bft)
30.08.2026 11:45 22,7 °C 59 % 1013,4 hPa 0,0 mm 14,1 km/h (3 Bft) SW 225 ° 14,3 °C 20,7 °C 29,0 km/h (5 Bft)
30.08.2026 11:40 22,5 °C 61 % 1013,4 hPa 0,0 mm 10,3 km/h (2 Bft) W-SW 237 ° 14,6 °C 21,3 °C 19,3 km/h (3 Bft)
30.08.2026 11:35 22,2 °C 64 % 1013,4 hPa 0,0 mm 9,3 km/h (2 Bft) SW 232 ° 15,1 °C 21,3 °C 20,9 km/h (4 Bft)
30.08.2026 11:30 22,0 °C 62 % 1013,5 hPa 0,0 mm 10,7 km/h (2 Bft) W-SW 248 ° 14,4 °C 20,7 °C 22,5 km/h (4 Bft)
30.08.2026 11:25 22,0 °C 62 % 1013,5 hPa 0,0 mm 12,3 km/h (3 Bft) W-SW 246 ° 14,4 °C 20,3 °C 25,7 km/h (4 Bft)
30.08.2026 11:20 21,9 °C 62 % 1013,4 hPa 0,0 mm 14,4 km/h (3 Bft) SW 234 ° 14,3 °C 19,7 °C 27,4 km/h (4 Bft)
30.08.2026 11:15 21,8 °C 64 % 1013,4 hPa 0,0 mm 13,2 km/h (3 Bft) SW 231 ° 14,7 °C 19,8 °C 25,7 km/h (4 Bft)
30.08.2026 11:10 21,8 °C 65 % 1013,5 hPa 0,0 mm 12,2 km/h (2 Bft) W-SW 240 ° 14,9 °C 20,1 °C 25,7 km/h (4 Bft)
30.08.2026 11:05 21,6 °C 64 % 1013,5 hPa 0,0 mm 14,1 km/h (3 Bft) S-SW 202 ° 14,5 °C 19,4 °C 25,7 km/h (4 Bft)
30.08.2026 11:00 21,4 °C 66 % 1013,3 hPa 0,0 mm 10,9 km/h (2 Bft) SW 218 ° 14,8 °C 19,9 °C 22,5 km/h (4 Bft)
30.08.2026 10:55 21,3 °C 67 % 1013,4 hPa 0,0 mm 10,5 km/h (2 Bft) W-SW 246 ° 14,9 °C 19,9 °C 20,9 km/h (4 Bft)
30.08.2026 10:50 21,1 °C 67 % 1013,4 hPa 0,0 mm 9,5 km/h (2 Bft) W 277 ° 14,7 °C 20,0 °C 17,7 km/h (3 Bft)
30.08.2026 10:45 21,1 °C 67 % 1013,3 hPa 0,0 mm 12,5 km/h (3 Bft) W 280 ° 14,7 °C 19,2 °C 27,4 km/h (4 Bft)
30.08.2026 10:40 21,0 °C 68 % 1013,2 hPa 0,0 mm 13,7 km/h (3 Bft) W 266 ° 14,9 °C 18,8 °C 24,1 km/h (4 Bft)
30.08.2026 10:35 20,9 °C 69 % 1013,3 hPa 0,0 mm 10,7 km/h (2 Bft) W-SW 252 ° 15,0 °C 19,4 °C 20,9 km/h (4 Bft)
30.08.2026 10:30 20,7 °C 69 % 1013,2 hPa 0,0 mm 11,2 km/h (2 Bft) W-NW 296 ° 14,8 °C 19,1 °C 29,0 km/h (5 Bft)
30.08.2026 10:25 20,7 °C 69 % 1013,3 hPa 0,0 mm 13,2 km/h (3 Bft) SW 234 ° 14,8 °C 18,5 °C 29,0 km/h (5 Bft)
30.08.2026 10:20 20,6 °C 69 % 1013,2 hPa 0,0 mm 10,1 km/h (2 Bft) W-SW 247 ° 14,7 °C 19,3 °C 20,9 km/h (4 Bft)
30.08.2026 10:15 20,5 °C 70 % 1013,2 hPa 0,0 mm 10,3 km/h (2 Bft) SW 222 ° 14,8 °C 19,1 °C 20,9 km/h (4 Bft)
30.08.2026 10:10 20,3 °C 70 % 1013,1 hPa 0,0 mm 15,2 km/h (3 Bft) W-SW 246 ° 14,6 °C 17,6 °C 33,8 km/h (5 Bft)
30.08.2026 10:05 20,3 °C 71 % 1013,0 hPa 0,0 mm 11,1 km/h (2 Bft) W-SW 247 ° 14,9 °C 18,6 °C 24,1 km/h (4 Bft)
30.08.2026 10:00 20,2 °C 71 % 1012,8 hPa 0,0 mm 11,1 km/h (2 Bft) W 267 ° 14,8 °C 18,5 °C 20,9 km/h (4 Bft)
_ Min-Zeit 07:10 13:50 03:25 - 19:55 - - 07:10 07:15 19:55
Minimum _ 15,1 °C 56 % 1011,2 hPa - 0,0 km/h (0 Bft) - - 13,6 °C 15,1 °C 0,0 km/h (0 Bft)
_ Max-Zeit 16:15 07:25 15:25 04:10 10:10 - - 04:20 16:10 10:10
Maximum _ 23,9 °C 92 % 1013,9 hPa 0,2 mm 15,2 km/h
W-SW (3 Bft)
- - 15,8 °C 23,8 °C 33,8 km/h
W-SW (5 Bft)
Durchschnitt _ 20,3 °C 71 % 1012,6 hPa #0,2 mm 5,6 km/h (1 Bft) SW - 14,6 °C 19,8 °C 12,4 km/h (3 Bft)